sensor_id;sensor_type;location;lat;lon;timestamp;P1;durP1;ratioP1;P2;durP2;ratioP2
9722;SDS011;4900;49.306;8.500;2023-03-31T00:01:28;7.65;;;2.88;;
9722;SDS011;4900;49.306;8.500;2023-03-31T00:03:54;6.55;;;2.90;;
9722;SDS011;4900;49.306;8.500;2023-03-31T00:06:28;7.55;;;2.85;;
9722;SDS011;4900;49.306;8.500;2023-03-31T00:09:02;5.18;;;2.70;;
9722;SDS011;4900;49.306;8.500;2023-03-31T00:11:33;6.35;;;2.50;;
9722;SDS011;4900;49.306;8.500;2023-03-31T00:13:58;5.17;;;2.30;;
9722;SDS011;4900;49.306;8.500;2023-03-31T00:16:24;5.43;;;2.33;;
9722;SDS011;4900;49.306;8.500;2023-03-31T00:18:49;7.50;;;2.50;;
9722;SDS011;4900;49.306;8.500;2023-03-31T00:21:17;5.23;;;2.33;;
9722;SDS011;4900;49.306;8.500;2023-03-31T00:24:01;6.70;;;2.73;;
9722;SDS011;4900;49.306;8.500;2023-03-31T00:26:28;6.80;;;2.70;;
9722;SDS011;4900;49.306;8.500;2023-03-31T00:28:55;4.77;;;2.30;;
9722;SDS011;4900;49.306;8.500;2023-03-31T00:31:21;4.70;;;2.58;;
9722;SDS011;4900;49.306;8.500;2023-03-31T00:33:47;7.78;;;2.70;;
9722;SDS011;4900;49.306;8.500;2023-03-31T00:36:13;5.05;;;2.20;;
9722;SDS011;4900;49.306;8.500;2023-03-31T00:38:45;6.57;;;2.37;;
9722;SDS011;4900;49.306;8.500;2023-03-31T00:41:12;6.78;;;2.30;;
9722;SDS011;4900;49.306;8.500;2023-03-31T00:43:38;7.65;;;3.03;;
9722;SDS011;4900;49.306;8.500;2023-03-31T00:48:58;5.82;;;2.50;;
9722;SDS011;4900;49.306;8.500;2023-03-31T00:51:25;7.32;;;3.17;;
9722;SDS011;4900;49.306;8.500;2023-03-31T00:53:55;5.10;;;2.70;;
9722;SDS011;4900;49.306;8.500;2023-03-31T00:56:31;7.97;;;3.07;;
9722;SDS011;4900;49.306;8.500;2023-03-31T00:59:01;6.73;;;2.90;;
9722;SDS011;4900;49.306;8.500;2023-03-31T01:01:32;6.85;;;2.67;;
9722;SDS011;4900;49.306;8.500;2023-03-31T01:04:00;8.10;;;3.20;;
9722;SDS011;4900;49.306;8.500;2023-03-31T01:06:27;8.73;;;3.90;;
9722;SDS011;4900;49.306;8.500;2023-03-31T01:08:54;8.07;;;4.20;;
9722;SDS011;4900;49.306;8.500;2023-03-31T01:11:21;7.55;;;3.60;;
9722;SDS011;4900;49.306;8.500;2023-03-31T01:13:49;9.48;;;3.75;;
9722;SDS011;4900;49.306;8.500;2023-03-31T01:16:17;7.47;;;2.87;;
9722;SDS011;4900;49.306;8.500;2023-03-31T01:18:43;6.57;;;2.63;;
9722;SDS011;4900;49.306;8.500;2023-03-31T01:35:12;5.33;;;2.33;;
9722;SDS011;4900;49.306;8.500;2023-03-31T01:43:18;4.77;;;2.10;;
9722;SDS011;4900;49.306;8.500;2023-03-31T01:48:23;6.90;;;2.10;;
9722;SDS011;4900;49.306;8.500;2023-03-31T01:50:57;4.80;;;1.90;;
9722;SDS011;4900;49.306;8.500;2023-03-31T01:53:38;6.07;;;2.13;;
9722;SDS011;4900;49.306;8.500;2023-03-31T01:58:42;7.93;;;2.63;;
9722;SDS011;4900;49.306;8.500;2023-03-31T02:06:38;8.27;;;4.13;;
9722;SDS011;4900;49.306;8.500;2023-03-31T02:09:11;7.72;;;4.00;;
9722;SDS011;4900;49.306;8.500;2023-03-31T02:11:40;8.10;;;4.30;;
9722;SDS011;4900;49.306;8.500;2023-03-31T02:14:07;9.48;;;3.67;;
9722;SDS011;4900;49.306;8.500;2023-03-31T02:16:36;8.57;;;3.83;;
9722;SDS011;4900;49.306;8.500;2023-03-31T02:19:05;4.80;;;2.47;;
9722;SDS011;4900;49.306;8.500;2023-03-31T02:21:33;6.97;;;2.87;;
9722;SDS011;4900;49.306;8.500;2023-03-31T02:24:03;7.57;;;3.92;;
9722;SDS011;4900;49.306;8.500;2023-03-31T02:26:34;8.70;;;3.90;;
9722;SDS011;4900;49.306;8.500;2023-03-31T02:29:03;8.17;;;3.83;;
9722;SDS011;4900;49.306;8.500;2023-03-31T02:34:12;8.90;;;3.65;;
9722;SDS011;4900;49.306;8.500;2023-03-31T02:36:37;6.70;;;2.50;;
9722;SDS011;4900;49.306;8.500;2023-03-31T02:39:07;4.73;;;2.30;;
9722;SDS011;4900;49.306;8.500;2023-03-31T02:41:35;7.03;;;2.55;;
9722;SDS011;4900;49.306;8.500;2023-03-31T02:44:01;6.80;;;2.53;;
9722;SDS011;4900;49.306;8.500;2023-03-31T02:46:27;5.47;;;2.07;;
9722;SDS011;4900;49.306;8.500;2023-03-31T02:48:54;5.47;;;2.30;;
9722;SDS011;4900;49.306;8.500;2023-03-31T03:05:15;5.80;;;2.15;;
9722;SDS011;4900;49.306;8.500;2023-03-31T03:10:27;5.03;;;2.23;;
9722;SDS011;4900;49.306;8.500;2023-03-31T03:15:49;6.90;;;2.45;;
9722;SDS011;4900;49.306;8.500;2023-03-31T03:18:20;5.25;;;2.30;;
9722;SDS011;4900;49.306;8.500;2023-03-31T03:20:46;5.00;;;2.00;;
9722;SDS011;4900;49.306;8.500;2023-03-31T03:23:14;4.70;;;1.90;;
9722;SDS011;4900;49.306;8.500;2023-03-31T03:25:40;5.57;;;2.03;;
9722;SDS011;4900;49.306;8.500;2023-03-31T03:28:06;5.77;;;2.03;;
9722;SDS011;4900;49.306;8.500;2023-03-31T03:30:31;5.45;;;2.00;;
9722;SDS011;4900;49.306;8.500;2023-03-31T03:32:57;6.55;;;2.20;;
9722;SDS011;4900;49.306;8.500;2023-03-31T03:35:22;3.75;;;1.90;;
9722;SDS011;4900;49.306;8.500;2023-03-31T03:37:48;4.20;;;1.93;;
9722;SDS011;4900;49.306;8.500;2023-03-31T03:40:13;5.80;;;1.73;;
9722;SDS011;4900;49.306;8.500;2023-03-31T03:42:39;4.93;;;2.10;;
9722;SDS011;4900;49.306;8.500;2023-03-31T03:45:05;4.57;;;2.07;;
9722;SDS011;4900;49.306;8.500;2023-03-31T03:47:31;4.70;;;2.08;;
9722;SDS011;4900;49.306;8.500;2023-03-31T03:49:57;4.28;;;2.03;;
9722;SDS011;4900;49.306;8.500;2023-03-31T03:52:22;6.05;;;2.33;;
9722;SDS011;4900;49.306;8.500;2023-03-31T03:54:48;6.00;;;2.20;;
9722;SDS011;4900;49.306;8.500;2023-03-31T03:57:13;4.23;;;1.90;;
9722;SDS011;4900;49.306;8.500;2023-03-31T03:59:39;4.78;;;2.13;;
9722;SDS011;4900;49.306;8.500;2023-03-31T04:02:04;3.95;;;1.95;;
9722;SDS011;4900;49.306;8.500;2023-03-31T04:04:29;3.97;;;2.10;;
9722;SDS011;4900;49.306;8.500;2023-03-31T04:06:55;5.10;;;2.40;;
9722;SDS011;4900;49.306;8.500;2023-03-31T04:09:20;3.65;;;2.30;;
9722;SDS011;4900;49.306;8.500;2023-03-31T04:11:46;5.87;;;2.33;;
9722;SDS011;4900;49.306;8.500;2023-03-31T04:14:11;5.37;;;2.27;;
9722;SDS011;4900;49.306;8.500;2023-03-31T04:16:37;5.55;;;2.30;;
9722;SDS011;4900;49.306;8.500;2023-03-31T04:19:04;5.40;;;2.20;;
9722;SDS011;4900;49.306;8.500;2023-03-31T04:21:30;4.83;;;2.20;;
9722;SDS011;4900;49.306;8.500;2023-03-31T04:23:59;6.53;;;2.10;;
9722;SDS011;4900;49.306;8.500;2023-03-31T04:26:31;4.90;;;2.20;;
9722;SDS011;4900;49.306;8.500;2023-03-31T04:29:08;6.87;;;2.37;;
9722;SDS011;4900;49.306;8.500;2023-03-31T04:31:38;6.18;;;2.50;;
9722;SDS011;4900;49.306;8.500;2023-03-31T04:34:07;5.43;;;2.10;;
9722;SDS011;4900;49.306;8.500;2023-03-31T04:36:40;4.00;;;2.33;;
9722;SDS011;4900;49.306;8.500;2023-03-31T04:39:27;5.17;;;2.37;;
9722;SDS011;4900;49.306;8.500;2023-03-31T04:41:55;6.00;;;2.53;;
9722;SDS011;4900;49.306;8.500;2023-03-31T04:44:24;4.60;;;2.53;;
9722;SDS011;4900;49.306;8.500;2023-03-31T04:46:51;6.82;;;2.53;;
9722;SDS011;4900;49.306;8.500;2023-03-31T04:49:16;6.10;;;2.80;;
9722;SDS011;4900;49.306;8.500;2023-03-31T04:51:42;4.23;;;2.47;;
9722;SDS011;4900;49.306;8.500;2023-03-31T04:54:09;6.13;;;2.77;;
9722;SDS011;4900;49.306;8.500;2023-03-31T04:56:34;4.87;;;2.63;;
9722;SDS011;4900;49.306;8.500;2023-03-31T04:59:00;4.77;;;2.93;;
9722;SDS011;4900;49.306;8.500;2023-03-31T05:01:27;5.23;;;3.30;;
9722;SDS011;4900;49.306;8.500;2023-03-31T05:03:57;5.83;;;3.00;;
9722;SDS011;4900;49.306;8.500;2023-03-31T05:06:23;3.72;;;2.60;;
9722;SDS011;4900;49.306;8.500;2023-03-31T05:08:48;6.50;;;2.90;;
9722;SDS011;4900;49.306;8.500;2023-03-31T05:11:14;5.30;;;2.77;;
9722;SDS011;4900;49.306;8.500;2023-03-31T05:13:40;6.25;;;2.80;;
9722;SDS011;4900;49.306;8.500;2023-03-31T05:16:09;5.33;;;2.57;;
9722;SDS011;4900;49.306;8.500;2023-03-31T05:18:38;5.88;;;2.65;;
9722;SDS011;4900;49.306;8.500;2023-03-31T05:21:08;4.67;;;2.70;;
9722;SDS011;4900;49.306;8.500;2023-03-31T05:23:39;8.17;;;2.90;;
9722;SDS011;4900;49.306;8.500;2023-03-31T05:26:04;5.90;;;2.83;;
9722;SDS011;4900;49.306;8.500;2023-03-31T05:28:32;7.27;;;2.90;;
9722;SDS011;4900;49.306;8.500;2023-03-31T05:30:58;6.43;;;2.87;;
9722;SDS011;4900;49.306;8.500;2023-03-31T05:33:25;7.13;;;2.97;;
9722;SDS011;4900;49.306;8.500;2023-03-31T05:35:51;8.73;;;3.20;;
9722;SDS011;4900;49.306;8.500;2023-03-31T05:38:17;5.10;;;3.00;;
9722;SDS011;4900;49.306;8.500;2023-03-31T05:40:42;8.20;;;3.13;;
9722;SDS011;4900;49.306;8.500;2023-03-31T05:43:07;9.17;;;3.57;;
9722;SDS011;4900;49.306;8.500;2023-03-31T05:45:33;6.50;;;4.17;;
9722;SDS011;4900;49.306;8.500;2023-03-31T05:47:58;7.10;;;3.73;;
9722;SDS011;4900;49.306;8.500;2023-03-31T05:50:24;8.50;;;4.00;;
9722;SDS011;4900;49.306;8.500;2023-03-31T05:52:50;7.80;;;3.97;;
9722;SDS011;4900;49.306;8.500;2023-03-31T05:55:15;5.93;;;3.37;;
9722;SDS011;4900;49.306;8.500;2023-03-31T05:57:41;5.83;;;3.60;;
9722;SDS011;4900;49.306;8.500;2023-03-31T06:00:06;6.77;;;3.73;;
9722;SDS011;4900;49.306;8.500;2023-03-31T06:02:35;6.77;;;3.77;;
9722;SDS011;4900;49.306;8.500;2023-03-31T06:05:01;7.87;;;3.90;;
9722;SDS011;4900;49.306;8.500;2023-03-31T06:07:27;8.30;;;3.60;;
9722;SDS011;4900;49.306;8.500;2023-03-31T06:09:53;6.13;;;3.70;;
9722;SDS011;4900;49.306;8.500;2023-03-31T06:12:18;6.87;;;3.70;;
9722;SDS011;4900;49.306;8.500;2023-03-31T06:14:44;8.93;;;3.90;;
9722;SDS011;4900;49.306;8.500;2023-03-31T06:17:10;6.40;;;3.90;;
9722;SDS011;4900;49.306;8.500;2023-03-31T06:19:35;5.77;;;4.03;;
9722;SDS011;4900;49.306;8.500;2023-03-31T06:22:00;7.37;;;4.17;;
9722;SDS011;4900;49.306;8.500;2023-03-31T06:24:26;7.80;;;4.73;;
9722;SDS011;4900;49.306;8.500;2023-03-31T06:26:51;10.43;;;4.57;;
9722;SDS011;4900;49.306;8.500;2023-03-31T06:29:17;9.40;;;5.00;;
9722;SDS011;4900;49.306;8.500;2023-03-31T06:31:42;10.37;;;5.53;;
9722;SDS011;4900;49.306;8.500;2023-03-31T06:34:08;8.03;;;4.50;;
9722;SDS011;4900;49.306;8.500;2023-03-31T06:36:33;8.23;;;4.20;;
9722;SDS011;4900;49.306;8.500;2023-03-31T06:38:58;7.90;;;4.87;;
9722;SDS011;4900;49.306;8.500;2023-03-31T06:41:24;7.27;;;4.70;;
9722;SDS011;4900;49.306;8.500;2023-03-31T06:43:50;7.57;;;4.50;;
9722;SDS011;4900;49.306;8.500;2023-03-31T06:46:16;6.82;;;4.13;;
9722;SDS011;4900;49.306;8.500;2023-03-31T06:48:42;7.63;;;4.28;;
9722;SDS011;4900;49.306;8.500;2023-03-31T06:51:08;6.13;;;4.13;;
9722;SDS011;4900;49.306;8.500;2023-03-31T06:53:34;7.55;;;4.32;;
9722;SDS011;4900;49.306;8.500;2023-03-31T06:56:00;10.33;;;4.70;;
9722;SDS011;4900;49.306;8.500;2023-03-31T06:58:26;8.33;;;4.10;;
9722;SDS011;4900;49.306;8.500;2023-03-31T07:00:52;7.60;;;4.30;;
9722;SDS011;4900;49.306;8.500;2023-03-31T07:03:17;9.23;;;4.40;;
9722;SDS011;4900;49.306;8.500;2023-03-31T07:05:50;8.38;;;4.32;;
9722;SDS011;4900;49.306;8.500;2023-03-31T07:08:17;8.53;;;5.10;;
9722;SDS011;4900;49.306;8.500;2023-03-31T07:10:43;9.85;;;4.78;;
9722;SDS011;4900;49.306;8.500;2023-03-31T07:13:12;10.30;;;5.00;;
9722;SDS011;4900;49.306;8.500;2023-03-31T07:15:39;9.10;;;5.00;;
9722;SDS011;4900;49.306;8.500;2023-03-31T07:18:05;8.40;;;4.90;;
9722;SDS011;4900;49.306;8.500;2023-03-31T07:20:31;7.37;;;4.73;;
9722;SDS011;4900;49.306;8.500;2023-03-31T07:22:56;9.15;;;5.05;;
9722;SDS011;4900;49.306;8.500;2023-03-31T07:25:22;7.75;;;4.97;;
9722;SDS011;4900;49.306;8.500;2023-03-31T07:27:48;7.43;;;4.85;;
9722;SDS011;4900;49.306;8.500;2023-03-31T07:30:14;9.23;;;4.90;;
9722;SDS011;4900;49.306;8.500;2023-03-31T07:32:42;5.47;;;4.60;;
9722;SDS011;4900;49.306;8.500;2023-03-31T07:35:11;10.23;;;5.05;;
9722;SDS011;4900;49.306;8.500;2023-03-31T07:37:40;8.73;;;4.70;;
9722;SDS011;4900;49.306;8.500;2023-03-31T07:40:09;6.88;;;4.40;;
9722;SDS011;4900;49.306;8.500;2023-03-31T07:42:36;5.43;;;4.30;;
9722;SDS011;4900;49.306;8.500;2023-03-31T07:45:02;7.95;;;4.50;;
9722;SDS011;4900;49.306;8.500;2023-03-31T07:47:30;8.20;;;4.15;;
9722;SDS011;4900;49.306;8.500;2023-03-31T07:49:56;7.82;;;4.47;;
9722;SDS011;4900;49.306;8.500;2023-03-31T07:52:22;6.60;;;4.05;;
9722;SDS011;4900;49.306;8.500;2023-03-31T07:54:47;10.57;;;4.53;;
9722;SDS011;4900;49.306;8.500;2023-03-31T07:57:13;8.63;;;4.40;;
9722;SDS011;4900;49.306;8.500;2023-03-31T07:59:40;7.82;;;4.78;;
9722;SDS011;4900;49.306;8.500;2023-03-31T08:02:06;9.18;;;6.07;;
9722;SDS011;4900;49.306;8.500;2023-03-31T08:04:32;8.73;;;6.00;;
9722;SDS011;4900;49.306;8.500;2023-03-31T08:06:57;7.63;;;4.80;;
9722;SDS011;4900;49.306;8.500;2023-03-31T08:09:23;6.93;;;4.68;;
9722;SDS011;4900;49.306;8.500;2023-03-31T08:11:48;6.30;;;4.30;;
9722;SDS011;4900;49.306;8.500;2023-03-31T08:14:14;5.25;;;3.97;;
9722;SDS011;4900;49.306;8.500;2023-03-31T08:16:40;6.30;;;3.85;;
9722;SDS011;4900;49.306;8.500;2023-03-31T08:19:05;7.60;;;4.03;;
9722;SDS011;4900;49.306;8.500;2023-03-31T08:21:31;8.38;;;4.72;;
9722;SDS011;4900;49.306;8.500;2023-03-31T08:23:56;6.47;;;4.05;;
9722;SDS011;4900;49.306;8.500;2023-03-31T08:26:23;6.72;;;3.65;;
9722;SDS011;4900;49.306;8.500;2023-03-31T08:28:49;6.35;;;3.70;;
9722;SDS011;4900;49.306;8.500;2023-03-31T08:31:16;5.40;;;3.70;;
9722;SDS011;4900;49.306;8.500;2023-03-31T08:33:43;6.00;;;3.42;;
9722;SDS011;4900;49.306;8.500;2023-03-31T08:36:11;4.70;;;3.28;;
9722;SDS011;4900;49.306;8.500;2023-03-31T08:38:38;6.72;;;3.83;;
9722;SDS011;4900;49.306;8.500;2023-03-31T08:41:07;4.95;;;3.30;;
9722;SDS011;4900;49.306;8.500;2023-03-31T08:43:47;4.93;;;3.45;;
9722;SDS011;4900;49.306;8.500;2023-03-31T08:46:16;6.45;;;3.30;;
9722;SDS011;4900;49.306;8.500;2023-03-31T08:48:50;4.63;;;3.20;;
9722;SDS011;4900;49.306;8.500;2023-03-31T08:51:21;4.72;;;3.20;;
9722;SDS011;4900;49.306;8.500;2023-03-31T08:56:39;4.05;;;2.55;;
9722;SDS011;4900;49.306;8.500;2023-03-31T09:02:09;4.20;;;2.47;;
9722;SDS011;4900;49.306;8.500;2023-03-31T09:18:12;7.30;;;3.75;;
9722;SDS011;4900;49.306;8.500;2023-03-31T09:20:45;4.68;;;3.00;;
9722;SDS011;4900;49.306;8.500;2023-03-31T09:23:25;4.78;;;2.60;;
9722;SDS011;4900;49.306;8.500;2023-03-31T09:25:54;6.55;;;3.20;;
9722;SDS011;4900;49.306;8.500;2023-03-31T09:28:29;5.63;;;3.00;;
9722;SDS011;4900;49.306;8.500;2023-03-31T09:30:59;6.38;;;3.22;;
9722;SDS011;4900;49.306;8.500;2023-03-31T09:33:31;7.90;;;3.40;;
9722;SDS011;4900;49.306;8.500;2023-03-31T09:35:57;5.93;;;2.95;;
9722;SDS011;4900;49.306;8.500;2023-03-31T09:38:23;8.02;;;3.70;;
9722;SDS011;4900;49.306;8.500;2023-03-31T09:40:53;9.25;;;4.78;;
9722;SDS011;4900;49.306;8.500;2023-03-31T09:43:23;8.07;;;4.68;;
9722;SDS011;4900;49.306;8.500;2023-03-31T09:45:50;8.57;;;3.70;;
9722;SDS011;4900;49.306;8.500;2023-03-31T09:48:20;9.75;;;3.80;;
9722;SDS011;4900;49.306;8.500;2023-03-31T09:51:00;7.18;;;3.10;;
9722;SDS011;4900;49.306;8.500;2023-03-31T09:53:34;8.10;;;3.70;;
9722;SDS011;4900;49.306;8.500;2023-03-31T09:56:10;10.90;;;4.00;;
9722;SDS011;4900;49.306;8.500;2023-03-31T09:58:44;6.80;;;3.45;;
9722;SDS011;4900;49.306;8.500;2023-03-31T10:01:11;8.52;;;3.97;;
9722;SDS011;4900;49.306;8.500;2023-03-31T10:03:47;9.27;;;4.20;;
9722;SDS011;4900;49.306;8.500;2023-03-31T10:06:15;9.25;;;4.05;;
9722;SDS011;4900;49.306;8.500;2023-03-31T10:08:46;7.30;;;3.10;;
9722;SDS011;4900;49.306;8.500;2023-03-31T10:11:13;9.38;;;3.47;;
9722;SDS011;4900;49.306;8.500;2023-03-31T10:16:10;7.85;;;3.53;;
9722;SDS011;4900;49.306;8.500;2023-03-31T10:18:39;9.02;;;3.65;;
9722;SDS011;4900;49.306;8.500;2023-03-31T10:21:07;5.05;;;2.72;;
9722;SDS011;4900;49.306;8.500;2023-03-31T10:23:45;5.65;;;2.65;;
9722;SDS011;4900;49.306;8.500;2023-03-31T10:26:12;8.82;;;3.20;;
9722;SDS011;4900;49.306;8.500;2023-03-31T10:28:42;6.68;;;3.30;;
9722;SDS011;4900;49.306;8.500;2023-03-31T10:31:08;9.20;;;4.20;;
9722;SDS011;4900;49.306;8.500;2023-03-31T10:33:37;8.02;;;4.00;;
9722;SDS011;4900;49.306;8.500;2023-03-31T10:36:14;9.80;;;5.05;;
9722;SDS011;4900;49.306;8.500;2023-03-31T10:38:45;4.72;;;2.55;;
9722;SDS011;4900;49.306;8.500;2023-03-31T10:41:16;5.00;;;2.10;;
9722;SDS011;4900;49.306;8.500;2023-03-31T10:43:48;5.68;;;2.00;;
9722;SDS011;4900;49.306;8.500;2023-03-31T10:46:15;4.95;;;1.52;;
9722;SDS011;4900;49.306;8.500;2023-03-31T10:48:41;4.55;;;2.30;;
9722;SDS011;4900;49.306;8.500;2023-03-31T10:53:59;4.00;;;3.10;;
9722;SDS011;4900;49.306;8.500;2023-03-31T11:04:33;4.03;;;1.88;;
9722;SDS011;4900;49.306;8.500;2023-03-31T11:30:49;4.05;;;2.78;;
9722;SDS011;4900;49.306;8.500;2023-03-31T11:33:32;4.00;;;2.63;;
9722;SDS011;4900;49.306;8.500;2023-03-31T11:42:28;5.90;;;2.17;;
9722;SDS011;4900;49.306;8.500;2023-03-31T11:44:57;4.78;;;1.90;;
9722;SDS011;4900;49.306;8.500;2023-03-31T11:47:27;5.80;;;2.50;;
9722;SDS011;4900;49.306;8.500;2023-03-31T11:49:58;4.35;;;1.90;;
9722;SDS011;4900;49.306;8.500;2023-03-31T11:52:28;5.15;;;2.55;;
9722;SDS011;4900;49.306;8.500;2023-03-31T11:54:58;5.85;;;2.78;;
9722;SDS011;4900;49.306;8.500;2023-03-31T11:57:30;5.50;;;2.85;;
9722;SDS011;4900;49.306;8.500;2023-03-31T12:00:05;4.20;;;2.33;;
9722;SDS011;4900;49.306;8.500;2023-03-31T12:02:38;5.20;;;2.58;;
9722;SDS011;4900;49.306;8.500;2023-03-31T12:05:10;6.07;;;2.05;;
9722;SDS011;4900;49.306;8.500;2023-03-31T12:07:42;3.90;;;1.80;;
9722;SDS011;4900;49.306;8.500;2023-03-31T12:10:30;4.47;;;2.30;;
9722;SDS011;4900;49.306;8.500;2023-03-31T12:15:36;4.57;;;2.70;;
9722;SDS011;4900;49.306;8.500;2023-03-31T12:18:10;4.55;;;2.10;;
9722;SDS011;4900;49.306;8.500;2023-03-31T12:20:41;4.53;;;2.10;;
9722;SDS011;4900;49.306;8.500;2023-03-31T12:23:24;5.03;;;2.30;;
9722;SDS011;4900;49.306;8.500;2023-03-31T12:28:27;4.90;;;1.70;;
9722;SDS011;4900;49.306;8.500;2023-03-31T12:30:56;3.65;;;1.67;;
9722;SDS011;4900;49.306;8.500;2023-03-31T12:33:26;4.55;;;2.00;;
9722;SDS011;4900;49.306;8.500;2023-03-31T12:42:11;4.20;;;2.28;;
9722;SDS011;4900;49.306;8.500;2023-03-31T12:45:03;7.03;;;2.75;;
9722;SDS011;4900;49.306;8.500;2023-03-31T12:50:15;5.95;;;3.65;;
9722;SDS011;4900;49.306;8.500;2023-03-31T12:53:10;5.80;;;3.53;;
9722;SDS011;4900;49.306;8.500;2023-03-31T12:55:46;5.65;;;3.15;;
9722;SDS011;4900;49.306;8.500;2023-03-31T13:05:59;5.43;;;2.53;;
9722;SDS011;4900;49.306;8.500;2023-03-31T13:11:44;5.32;;;3.45;;
9722;SDS011;4900;49.306;8.500;2023-03-31T13:16:46;6.63;;;2.80;;
9722;SDS011;4900;49.306;8.500;2023-03-31T13:19:31;5.72;;;2.70;;
9722;SDS011;4900;49.306;8.500;2023-03-31T13:21:59;6.22;;;2.60;;
9722;SDS011;4900;49.306;8.500;2023-03-31T13:24:27;4.38;;;2.20;;
9722;SDS011;4900;49.306;8.500;2023-03-31T13:26:55;4.25;;;2.20;;
9722;SDS011;4900;49.306;8.500;2023-03-31T13:29:24;4.47;;;1.92;;
9722;SDS011;4900;49.306;8.500;2023-03-31T13:34:44;4.63;;;1.75;;
9722;SDS011;4900;49.306;8.500;2023-03-31T13:37:36;4.03;;;1.50;;
9722;SDS011;4900;49.306;8.500;2023-03-31T13:43:21;3.13;;;1.10;;
9722;SDS011;4900;49.306;8.500;2023-03-31T14:05:16;5.93;;;2.42;;
9722;SDS011;4900;49.306;8.500;2023-03-31T14:08:07;3.88;;;2.03;;
9722;SDS011;4900;49.306;8.500;2023-03-31T14:10:40;4.68;;;1.80;;
9722;SDS011;4900;49.306;8.500;2023-03-31T14:13:16;3.15;;;1.48;;
9722;SDS011;4900;49.306;8.500;2023-03-31T14:15:53;3.45;;;1.60;;
9722;SDS011;4900;49.306;8.500;2023-03-31T14:18:25;3.90;;;1.40;;
9722;SDS011;4900;49.306;8.500;2023-03-31T14:36:59;7.22;;;2.25;;
9722;SDS011;4900;49.306;8.500;2023-03-31T14:39:32;2.60;;;1.60;;
9722;SDS011;4900;49.306;8.500;2023-03-31T14:42:03;3.15;;;1.75;;
9722;SDS011;4900;49.306;8.500;2023-03-31T14:44:30;5.22;;;1.60;;
9722;SDS011;4900;49.306;8.500;2023-03-31T14:46:58;3.67;;;1.67;;
9722;SDS011;4900;49.306;8.500;2023-03-31T14:51:54;4.18;;;2.10;;
9722;SDS011;4900;49.306;8.500;2023-03-31T14:54:24;3.95;;;2.40;;
9722;SDS011;4900;49.306;8.500;2023-03-31T14:56:53;5.63;;;2.60;;
9722;SDS011;4900;49.306;8.500;2023-03-31T14:59:23;4.60;;;2.70;;
9722;SDS011;4900;49.306;8.500;2023-03-31T15:01:52;5.97;;;2.80;;
9722;SDS011;4900;49.306;8.500;2023-03-31T15:04:21;5.55;;;2.78;;
9722;SDS011;4900;49.306;8.500;2023-03-31T15:06:49;4.07;;;2.42;;
9722;SDS011;4900;49.306;8.500;2023-03-31T15:09:20;5.00;;;2.90;;
9722;SDS011;4900;49.306;8.500;2023-03-31T15:12:06;5.22;;;3.33;;
9722;SDS011;4900;49.306;8.500;2023-03-31T15:14:37;5.18;;;3.03;;
9722;SDS011;4900;49.306;8.500;2023-03-31T15:17:19;4.50;;;2.35;;
9722;SDS011;4900;49.306;8.500;2023-03-31T15:19:52;5.03;;;2.40;;
9722;SDS011;4900;49.306;8.500;2023-03-31T15:22:21;4.07;;;2.00;;
9722;SDS011;4900;49.306;8.500;2023-03-31T15:24:48;5.10;;;2.22;;
9722;SDS011;4900;49.306;8.500;2023-03-31T15:27:35;2.88;;;1.70;;
9722;SDS011;4900;49.306;8.500;2023-03-31T15:30:13;3.83;;;2.10;;
9722;SDS011;4900;49.306;8.500;2023-03-31T15:32:42;3.15;;;1.67;;
9722;SDS011;4900;49.306;8.500;2023-03-31T15:35:21;4.28;;;2.17;;
9722;SDS011;4900;49.306;8.500;2023-03-31T15:37:50;4.20;;;2.22;;
9722;SDS011;4900;49.306;8.500;2023-03-31T15:40:20;4.85;;;2.42;;
9722;SDS011;4900;49.306;8.500;2023-03-31T15:42:46;3.17;;;1.80;;
9722;SDS011;4900;49.306;8.500;2023-03-31T15:47:55;4.82;;;1.70;;
9722;SDS011;4900;49.306;8.500;2023-03-31T15:50:21;2.95;;;1.55;;
9722;SDS011;4900;49.306;8.500;2023-03-31T15:52:49;3.97;;;1.50;;
9722;SDS011;4900;49.306;8.500;2023-03-31T15:58:04;4.30;;;2.30;;
9722;SDS011;4900;49.306;8.500;2023-03-31T16:02:55;3.22;;;1.40;;
9722;SDS011;4900;49.306;8.500;2023-03-31T16:07:56;3.67;;;1.45;;
9722;SDS011;4900;49.306;8.500;2023-03-31T16:10:22;5.65;;;1.55;;
9722;SDS011;4900;49.306;8.500;2023-03-31T16:12:51;3.42;;;1.67;;
9722;SDS011;4900;49.306;8.500;2023-03-31T16:15:28;3.78;;;1.98;;
9722;SDS011;4900;49.306;8.500;2023-03-31T16:17:57;3.63;;;1.50;;
9722;SDS011;4900;49.306;8.500;2023-03-31T16:20:27;3.45;;;1.52;;
9722;SDS011;4900;49.306;8.500;2023-03-31T16:22:57;4.60;;;1.60;;
9722;SDS011;4900;49.306;8.500;2023-03-31T16:25:24;2.38;;;1.50;;
9722;SDS011;4900;49.306;8.500;2023-03-31T16:27:55;3.53;;;1.63;;
9722;SDS011;4900;49.306;8.500;2023-03-31T16:30:35;2.95;;;1.60;;
9722;SDS011;4900;49.306;8.500;2023-03-31T16:33:50;2.88;;;1.35;;
9722;SDS011;4900;49.306;8.500;2023-03-31T16:36:16;3.63;;;1.58;;
9722;SDS011;4900;49.306;8.500;2023-03-31T16:38:42;4.22;;;1.60;;
9722;SDS011;4900;49.306;8.500;2023-03-31T16:41:07;3.05;;;1.23;;
9722;SDS011;4900;49.306;8.500;2023-03-31T16:43:33;4.00;;;1.50;;
9722;SDS011;4900;49.306;8.500;2023-03-31T16:46:00;3.42;;;1.38;;
9722;SDS011;4900;49.306;8.500;2023-03-31T16:48:30;3.40;;;1.70;;
9722;SDS011;4900;49.306;8.500;2023-03-31T16:50:58;3.45;;;1.50;;
9722;SDS011;4900;49.306;8.500;2023-03-31T16:53:25;2.85;;;1.45;;
9722;SDS011;4900;49.306;8.500;2023-03-31T16:55:52;3.00;;;1.13;;
9722;SDS011;4900;49.306;8.500;2023-03-31T16:58:18;1.73;;;1.30;;
9722;SDS011;4900;49.306;8.500;2023-03-31T17:00:45;3.25;;;1.30;;
9722;SDS011;4900;49.306;8.500;2023-03-31T17:03:11;1.30;;;1.00;;
9722;SDS011;4900;49.306;8.500;2023-03-31T17:05:38;2.40;;;1.17;;
9722;SDS011;4900;49.306;8.500;2023-03-31T17:08:06;1.52;;;1.10;;
9722;SDS011;4900;49.306;8.500;2023-03-31T17:10:32;2.03;;;1.08;;
9722;SDS011;4900;49.306;8.500;2023-03-31T17:12:59;1.42;;;1.10;;
9722;SDS011;4900;49.306;8.500;2023-03-31T17:15:25;2.67;;;1.80;;
9722;SDS011;4900;49.306;8.500;2023-03-31T17:17:50;3.53;;;2.15;;
9722;SDS011;4900;49.306;8.500;2023-03-31T17:20:17;3.55;;;2.35;;
9722;SDS011;4900;49.306;8.500;2023-03-31T17:22:43;3.47;;;2.67;;
9722;SDS011;4900;49.306;8.500;2023-03-31T17:25:09;4.35;;;2.60;;
9722;SDS011;4900;49.306;8.500;2023-03-31T17:27:35;5.47;;;2.40;;
9722;SDS011;4900;49.306;8.500;2023-03-31T17:30:02;6.25;;;4.80;;
9722;SDS011;4900;49.306;8.500;2023-03-31T17:32:27;2.65;;;1.98;;
9722;SDS011;4900;49.306;8.500;2023-03-31T17:34:53;5.03;;;3.42;;
9722;SDS011;4900;49.306;8.500;2023-03-31T17:37:19;2.53;;;1.70;;
9722;SDS011;4900;49.306;8.500;2023-03-31T17:39:44;3.38;;;1.85;;
9722;SDS011;4900;49.306;8.500;2023-03-31T17:42:11;2.40;;;1.80;;
9722;SDS011;4900;49.306;8.500;2023-03-31T17:44:43;1.90;;;1.70;;
9722;SDS011;4900;49.306;8.500;2023-03-31T17:47:10;2.45;;;1.60;;
9722;SDS011;4900;49.306;8.500;2023-03-31T17:49:36;1.90;;;1.33;;
9722;SDS011;4900;49.306;8.500;2023-03-31T17:52:01;1.50;;;1.20;;
9722;SDS011;4900;49.306;8.500;2023-03-31T17:54:26;1.85;;;1.30;;
9722;SDS011;4900;49.306;8.500;2023-03-31T17:56:52;1.90;;;1.20;;
9722;SDS011;4900;49.306;8.500;2023-03-31T17:59:18;2.30;;;1.35;;
9722;SDS011;4900;49.306;8.500;2023-03-31T18:01:44;2.65;;;1.73;;
9722;SDS011;4900;49.306;8.500;2023-03-31T18:04:11;3.00;;;2.00;;
9722;SDS011;4900;49.306;8.500;2023-03-31T18:06:38;4.80;;;2.30;;
9722;SDS011;4900;49.306;8.500;2023-03-31T18:09:03;3.50;;;1.90;;
9722;SDS011;4900;49.306;8.500;2023-03-31T18:11:30;2.22;;;1.67;;
9722;SDS011;4900;49.306;8.500;2023-03-31T18:13:56;3.80;;;1.80;;
9722;SDS011;4900;49.306;8.500;2023-03-31T18:16:24;3.33;;;1.60;;
9722;SDS011;4900;49.306;8.500;2023-03-31T18:18:50;2.20;;;1.60;;
9722;SDS011;4900;49.306;8.500;2023-03-31T18:21:16;2.33;;;1.60;;
9722;SDS011;4900;49.306;8.500;2023-03-31T18:23:41;3.97;;;1.70;;
9722;SDS011;4900;49.306;8.500;2023-03-31T18:26:10;2.70;;;1.37;;
9722;SDS011;4900;49.306;8.500;2023-03-31T18:28:37;3.07;;;1.60;;
9722;SDS011;4900;49.306;8.500;2023-03-31T18:31:05;2.23;;;1.20;;
9722;SDS011;4900;49.306;8.500;2023-03-31T18:33:32;2.33;;;1.40;;
9722;SDS011;4900;49.306;8.500;2023-03-31T18:35:57;4.67;;;1.90;;
9722;SDS011;4900;49.306;8.500;2023-03-31T18:38:23;3.30;;;1.60;;
9722;SDS011;4900;49.306;8.500;2023-03-31T18:40:49;3.23;;;1.60;;
9722;SDS011;4900;49.306;8.500;2023-03-31T18:43:16;2.07;;;1.40;;
9722;SDS011;4900;49.306;8.500;2023-03-31T18:45:43;2.93;;;1.60;;